createdAt,value
2018-01-29T00:00:55.216Z,11.90
2018-01-29T00:03:23.512Z,10.20
2018-01-29T00:05:52.456Z,10.03
2018-01-29T00:08:20.722Z,11.30
2018-01-29T00:10:48.905Z,9.37
2018-01-29T00:13:17.075Z,10.73
2018-01-29T00:15:45.332Z,10.43
2018-01-29T00:18:13.506Z,12.13
2018-01-29T00:20:41.717Z,15.23
2018-01-29T00:23:09.942Z,10.70
2018-01-29T00:25:38.901Z,8.33
2018-01-29T00:28:07.268Z,10.67
2018-01-29T00:30:35.449Z,9.33
2018-01-29T00:33:03.612Z,11.90
2018-01-29T00:35:31.802Z,13.53
2018-01-29T00:38:00.025Z,12.57
2018-01-29T00:40:28.987Z,10.60
2018-01-29T00:42:57.962Z,10.87
2018-01-29T00:45:26.193Z,11.30
2018-01-29T00:47:55.213Z,10.13
2018-01-29T00:50:23.408Z,10.73
2018-01-29T00:52:51.603Z,14.47
2018-01-29T00:55:19.837Z,12.10
2018-01-29T00:57:48.030Z,8.23
2018-01-29T01:00:16.302Z,6.80
2018-01-29T01:02:44.490Z,12.13
2018-01-29T01:05:12.711Z,13.40
2018-01-29T01:07:40.963Z,9.13
2018-01-29T01:10:09.949Z,7.93
2018-01-29T01:12:38.156Z,9.13
2018-01-29T01:15:07.136Z,9.27
2018-01-29T01:17:36.104Z,7.70
2018-01-29T01:20:04.409Z,10.90
2018-01-29T01:22:33.695Z,10.17
2018-01-29T01:25:02.700Z,8.73
2018-01-29T01:27:31.075Z,6.97
2018-01-29T01:30:00.056Z,10.53
2018-01-29T01:32:28.310Z,11.40
2018-01-29T01:34:56.521Z,14.23
2018-01-29T01:37:24.724Z,12.33
2018-01-29T01:39:52.957Z,12.27
2018-01-29T01:42:21.311Z,12.60
2018-01-29T01:44:49.513Z,9.60
2018-01-29T01:47:17.772Z,11.67
2018-01-29T01:49:45.970Z,8.20
2018-01-29T01:52:14.161Z,14.53
2018-01-29T01:54:42.402Z,13.70
2018-01-29T01:57:10.600Z,17.37
2018-01-29T01:59:38.794Z,12.03
2018-01-29T02:02:06.995Z,15.83
2018-01-29T02:04:36.571Z,9.37
2018-01-29T02:07:05.535Z,15.00
2018-01-29T02:09:33.784Z,11.77
2018-01-29T02:12:01.976Z,15.53
2018-01-29T02:14:30.176Z,13.77
2018-01-29T02:16:58.354Z,16.33
2018-01-29T02:19:26.573Z,12.47
2018-01-29T02:21:54.774Z,13.57
2018-01-29T02:24:22.955Z,11.07
2018-01-29T02:26:51.178Z,17.30
2018-01-29T02:29:19.632Z,13.97
2018-01-29T02:31:47.802Z,13.13
2018-01-29T02:34:16.026Z,14.00
2018-01-29T02:36:44.963Z,13.73
2018-01-29T02:39:13.158Z,17.03
2018-01-29T02:41:41.370Z,12.30
2018-01-29T02:44:10.320Z,16.70
2018-01-29T02:46:38.510Z,16.53
2018-01-29T02:49:06.716Z,13.23
2018-01-29T02:51:35.756Z,11.13
2018-01-29T02:54:03.951Z,14.07
2018-01-29T02:56:32.161Z,14.17
2018-01-29T02:59:00.451Z,10.53
2018-01-29T03:01:29.451Z,12.93
2018-01-29T03:03:57.962Z,13.00
2018-01-29T03:06:26.176Z,11.53
2018-01-29T03:08:55.877Z,14.67
2018-01-29T03:11:24.095Z,14.40
2018-01-29T03:13:52.292Z,13.50
2018-01-29T03:16:20.501Z,15.33
2018-01-29T03:18:48.708Z,13.67
2018-01-29T03:21:17.674Z,13.97
2018-01-29T03:23:45.884Z,12.43
2018-01-29T03:26:14.901Z,10.73
2018-01-29T03:28:43.093Z,11.63
2018-01-29T03:31:11.525Z,13.97
2018-01-29T03:33:40.517Z,11.40
2018-01-29T03:36:09.545Z,11.50
2018-01-29T03:38:37.826Z,7.40
2018-01-29T03:41:06.027Z,13.67
2018-01-29T03:43:34.261Z,14.70
2018-01-29T03:46:02.490Z,13.93
2018-01-29T03:48:30.660Z,13.73
2018-01-29T03:50:58.839Z,10.60
2018-01-29T03:53:27.196Z,12.43
2018-01-29T03:55:55.460Z,11.13
2018-01-29T03:58:23.634Z,8.20
2018-01-29T04:00:51.831Z,9.30
2018-01-29T04:03:20.080Z,8.77
2018-01-29T04:05:48.253Z,7.73
2018-01-29T04:08:16.474Z,11.30
2018-01-29T04:10:44.653Z,10.73
2018-01-29T04:13:12.841Z,14.97
2018-01-29T04:15:41.063Z,9.27
2018-01-29T04:18:09.275Z,4.83
2018-01-29T04:20:37.458Z,6.73
2018-01-29T04:23:05.673Z,8.03
2018-01-29T04:25:34.613Z,7.37
2018-01-29T04:28:02.781Z,10.70
2018-01-29T04:30:31.025Z,9.07
2018-01-29T04:32:59.225Z,9.13
2018-01-29T04:35:27.396Z,9.57
2018-01-29T04:37:55.610Z,7.53
2018-01-29T04:40:23.806Z,10.80
2018-01-29T04:42:52.761Z,9.37
2018-01-29T04:45:20.979Z,9.07
2018-01-29T04:47:49.926Z,9.27
2018-01-29T04:50:18.122Z,5.70
2018-01-29T04:52:46.353Z,5.17
2018-01-29T04:55:14.581Z,4.83
2018-01-29T04:57:42.724Z,7.40
2018-01-29T05:00:10.955Z,6.90
2018-01-29T05:02:39.904Z,6.37
2018-01-29T05:05:08.108Z,5.83
2018-01-29T05:07:36.432Z,6.60
2018-01-29T05:10:04.670Z,6.80
2018-01-29T05:12:32.846Z,10.90
2018-01-29T05:15:01.816Z,3.70
2018-01-29T05:17:30.013Z,5.47
2018-01-29T05:19:58.976Z,5.00
2018-01-29T05:22:27.200Z,4.23
2018-01-29T05:24:56.128Z,7.70
2018-01-29T05:27:24.303Z,5.40
2018-01-29T05:29:52.508Z,4.87
2018-01-29T05:32:20.696Z,5.90
2018-01-29T05:34:49.862Z,7.40
2018-01-29T05:37:34.894Z,5.17
2018-01-29T05:40:03.072Z,4.50
2018-01-29T05:42:31.252Z,4.13
2018-01-29T05:44:59.471Z,4.80
2018-01-29T05:47:27.649Z,4.70
2018-01-29T05:49:55.838Z,7.43
2018-01-29T05:52:24.825Z,8.10
2018-01-29T05:54:53.007Z,10.17
2018-01-29T05:57:21.957Z,7.53
2018-01-29T05:59:50.180Z,7.13
2018-01-29T06:02:19.153Z,7.73
2018-01-29T06:04:47.356Z,7.70
2018-01-29T06:07:16.317Z,6.07
2018-01-29T06:09:44.486Z,5.37
2018-01-29T06:12:12.649Z,3.20
2018-01-29T06:14:40.863Z,9.00
2018-01-29T06:17:10.545Z,5.50
2018-01-29T06:19:38.788Z,4.73
2018-01-29T06:22:07.021Z,5.87
2018-01-29T06:24:35.204Z,7.57
2018-01-29T06:27:03.398Z,8.23
2018-01-29T06:29:32.375Z,6.43
2018-01-29T06:32:02.068Z,7.27
2018-01-29T06:34:31.771Z,5.07
2018-01-29T06:37:00.319Z,6.97
2018-01-29T06:39:28.496Z,5.60
2018-01-29T06:41:56.763Z,8.83
2018-01-29T06:44:24.964Z,6.97
2018-01-29T06:46:53.174Z,9.90
2018-01-29T06:49:21.366Z,7.13
2018-01-29T06:51:49.576Z,9.80
2018-01-29T06:54:17.759Z,8.43
2018-01-29T06:56:45.928Z,6.77
2018-01-29T06:59:14.126Z,9.67
2018-01-29T07:01:42.312Z,6.97
2018-01-29T07:04:10.538Z,12.07
2018-01-29T07:06:39.530Z,8.17
2018-01-29T07:09:07.726Z,10.73
2018-01-29T07:11:36.683Z,7.83
2018-01-29T07:14:04.868Z,9.27
2018-01-29T07:16:33.820Z,9.20
2018-01-29T07:19:01.994Z,8.20
2018-01-29T07:21:30.239Z,10.60
2018-01-29T07:23:58.435Z,8.67
2018-01-29T07:26:26.766Z,10.27
2018-01-29T07:28:55.816Z,7.20
2018-01-29T07:31:23.993Z,10.63
2018-01-29T07:33:52.205Z,7.87
2018-01-29T07:36:21.349Z,10.27
2018-01-29T07:38:49.565Z,8.47
2018-01-29T07:41:17.797Z,9.73
2018-01-29T07:43:46.074Z,12.17
2018-01-29T07:46:14.265Z,8.30
2018-01-29T07:48:42.479Z,11.03
2018-01-29T07:51:10.729Z,8.73
2018-01-29T07:53:38.959Z,11.70
2018-01-29T07:56:07.158Z,8.50
2018-01-29T07:58:35.381Z,8.47
2018-01-29T08:01:03.601Z,7.30
2018-01-29T08:03:31.794Z,12.83
2018-01-29T08:06:00.002Z,8.17
2018-01-29T08:08:28.205Z,8.57
2018-01-29T08:10:57.149Z,12.20
2018-01-29T08:13:25.374Z,6.73
2018-01-29T08:15:54.362Z,10.27
2018-01-29T08:18:23.330Z,13.60
2018-01-29T08:20:52.134Z,11.33
2018-01-29T08:23:20.355Z,9.27
2018-01-29T08:25:48.557Z,10.87
2018-01-29T08:28:16.797Z,9.27
2018-01-29T08:30:45.035Z,11.07
2018-01-29T08:33:13.364Z,7.43
2018-01-29T08:35:41.583Z,11.10
2018-01-29T08:38:09.790Z,8.03
2018-01-29T08:40:38.024Z,9.17
2018-01-29T08:43:06.248Z,11.23
2018-01-29T08:45:34.440Z,6.83
2018-01-29T08:48:02.728Z,13.30
2018-01-29T08:50:30.985Z,15.00
2018-01-29T08:52:59.308Z,7.90
2018-01-29T08:55:27.513Z,10.13
2018-01-29T08:57:56.504Z,11.27
2018-01-29T09:00:25.546Z,6.37
2018-01-29T09:02:53.774Z,8.20
2018-01-29T09:05:22.094Z,10.97
2018-01-29T09:07:50.480Z,12.20
2018-01-29T09:10:18.700Z,9.47
2018-01-29T09:12:48.393Z,11.43
2018-01-29T09:15:16.601Z,11.43
2018-01-29T09:17:45.598Z,10.27
2018-01-29T09:20:14.586Z,10.07
2018-01-29T09:22:43.572Z,11.93
2018-01-29T09:25:11.784Z,10.47
2018-01-29T09:27:39.998Z,10.90
2018-01-29T09:30:08.256Z,10.73
2018-01-29T09:32:36.437Z,9.67
2018-01-29T09:35:04.683Z,8.93
2018-01-29T09:37:32.925Z,9.03
2018-01-29T09:40:01.157Z,11.43
2018-01-29T09:42:29.357Z,8.90
2018-01-29T09:44:57.727Z,11.87
2018-01-29T09:47:25.923Z,9.63
2018-01-29T09:49:54.121Z,12.23
2018-01-29T09:52:23.091Z,10.63
2018-01-29T09:54:51.306Z,7.77
2018-01-29T09:57:20.341Z,11.00
2018-01-29T09:59:48.539Z,8.50
2018-01-29T10:02:16.741Z,9.10
2018-01-29T10:04:45.727Z,7.00
2018-01-29T10:07:14.048Z,6.60
2018-01-29T10:09:42.243Z,7.93
2018-01-29T10:12:10.457Z,7.40
2018-01-29T10:14:38.991Z,6.70
2018-01-29T10:17:07.181Z,5.57
2018-01-29T10:19:35.400Z,9.73
2018-01-29T10:22:04.393Z,9.60
2018-01-29T10:24:33.442Z,9.20
2018-01-29T10:27:01.662Z,9.27
2018-01-29T10:29:29.931Z,5.33
2018-01-29T10:31:58.965Z,7.97
2018-01-29T10:34:27.253Z,8.70
2018-01-29T10:36:55.467Z,6.07
2018-01-29T10:39:23.680Z,10.77
2018-01-29T10:41:52.624Z,7.83
2018-01-29T10:44:22.378Z,9.63
2018-01-29T10:46:51.356Z,12.57
2018-01-29T10:49:19.564Z,8.13
2018-01-29T10:51:47.852Z,10.20
2018-01-29T10:54:16.067Z,10.17
2018-01-29T10:56:44.293Z,7.93
2018-01-29T10:59:13.304Z,8.67
2018-01-29T11:01:47.265Z,9.97
2018-01-29T11:04:16.995Z,11.40
2018-01-29T11:06:45.996Z,8.07
2018-01-29T11:09:14.963Z,7.03
2018-01-29T11:11:43.976Z,10.67
2018-01-29T11:14:12.942Z,8.50
2018-01-29T11:16:41.534Z,6.53
2018-01-29T11:19:09.758Z,7.20
2018-01-29T11:21:37.952Z,7.97
2018-01-29T11:24:06.134Z,6.40
2018-01-29T11:26:34.392Z,7.13
2018-01-29T11:29:02.583Z,7.30
2018-01-29T11:31:30.798Z,6.13
2018-01-29T11:33:59.034Z,7.03
2018-01-29T11:36:27.246Z,7.13
2018-01-29T11:38:55.469Z,6.73
2018-01-29T11:41:23.804Z,8.10
2018-01-29T11:43:52.068Z,4.67
2018-01-29T11:46:20.266Z,9.17
2018-01-29T11:48:48.460Z,2.10
2018-01-29T11:51:16.709Z,3.03
2018-01-29T11:53:45.761Z,2.40
2018-01-29T11:56:13.998Z,3.60
2018-01-29T11:58:43.127Z,2.87
2018-01-29T12:01:11.399Z,1.43
2018-01-29T12:03:39.677Z,4.13
2018-01-29T12:06:07.884Z,3.83
2018-01-29T12:08:36.071Z,2.07
2018-01-29T12:11:04.314Z,3.50
2018-01-29T12:13:32.524Z,4.17
2018-01-29T12:16:00.762Z,2.87
2018-01-29T12:18:29.142Z,3.93
2018-01-29T12:20:57.362Z,3.30
2018-01-29T12:23:26.344Z,4.03
2018-01-29T12:25:54.590Z,4.53
2018-01-29T12:28:22.780Z,3.17
2018-01-29T12:30:50.986Z,2.80
2018-01-29T12:33:19.224Z,3.57
2018-01-29T12:35:47.468Z,3.97
2018-01-29T12:38:16.440Z,3.90
2018-01-29T12:40:44.768Z,2.67
2018-01-29T12:43:12.990Z,4.43
2018-01-29T12:45:42.682Z,3.77
2018-01-29T12:48:10.934Z,2.93
2018-01-29T12:50:39.310Z,2.63
2018-01-29T12:53:07.556Z,1.70
2018-01-29T12:55:35.821Z,1.30
2018-01-29T12:58:04.912Z,4.53
2018-01-29T13:00:33.140Z,5.67
2018-01-29T13:03:01.359Z,3.73
2018-01-29T13:05:29.692Z,4.30
2018-01-29T13:07:57.896Z,2.27
2018-01-29T13:10:26.097Z,6.87
2018-01-29T13:12:54.317Z,3.03
2018-01-29T13:15:22.623Z,4.73
2018-01-29T13:17:50.834Z,4.20
2018-01-29T13:20:19.846Z,4.37
2018-01-29T13:22:48.094Z,3.57
2018-01-29T13:25:16.349Z,5.57
2018-01-29T13:27:45.353Z,2.57
2018-01-29T13:30:13.566Z,6.20
2018-01-29T13:32:42.587Z,7.93
2018-01-29T13:35:10.809Z,6.10
2018-01-29T13:37:39.061Z,5.07
2018-01-29T13:40:07.263Z,6.97
2018-01-29T13:42:36.261Z,8.23
2018-01-29T13:45:04.600Z,7.47
2018-01-29T13:47:32.835Z,5.23
2018-01-29T13:50:01.807Z,6.20
2018-01-29T13:52:30.042Z,8.83
2018-01-29T13:54:58.276Z,7.43
2018-01-29T13:57:26.591Z,9.03
2018-01-29T13:59:54.789Z,7.87
2018-01-29T14:02:23.235Z,8.40
2018-01-29T14:04:51.441Z,8.53
2018-01-29T14:07:19.668Z,7.10
2018-01-29T14:09:48.650Z,8.47
2018-01-29T14:12:16.877Z,11.13
2018-01-29T14:14:45.093Z,6.53
2018-01-29T14:17:14.192Z,10.13
2018-01-29T14:19:42.410Z,6.33
2018-01-29T14:22:10.666Z,6.27
2018-01-29T14:24:39.681Z,6.77
2018-01-29T14:27:07.884Z,7.37
2018-01-29T14:29:36.084Z,6.60
2018-01-29T14:32:05.140Z,6.60
2018-01-29T14:34:34.089Z,5.13
2018-01-29T14:37:02.284Z,9.40
2018-01-29T14:39:30.500Z,7.80
2018-01-29T14:41:58.723Z,8.63
2018-01-29T14:44:27.683Z,8.77
2018-01-29T14:46:55.919Z,10.80
2018-01-29T14:49:24.115Z,9.03
2018-01-29T14:51:52.334Z,8.60
2018-01-29T14:54:20.678Z,6.70
2018-01-29T14:56:48.874Z,11.20
2018-01-29T14:59:17.101Z,7.43
2018-01-29T15:01:45.311Z,9.27
2018-01-29T15:04:13.566Z,10.83
2018-01-29T15:06:41.756Z,7.40
2018-01-29T15:09:09.982Z,8.53
2018-01-29T15:11:38.214Z,16.50
2018-01-29T15:14:07.208Z,9.37
2018-01-29T15:16:35.416Z,7.77
2018-01-29T15:19:03.635Z,14.10
2018-01-29T15:21:32.092Z,14.13
2018-01-29T15:24:00.404Z,8.50
2018-01-29T15:26:28.672Z,13.30
2018-01-29T15:28:56.883Z,16.53
2018-01-29T15:31:25.113Z,12.40
2018-01-29T15:33:53.299Z,12.00
2018-01-29T15:36:21.521Z,10.00
2018-01-29T15:38:50.580Z,12.10
2018-01-29T15:41:18.784Z,15.43
2018-01-29T15:43:47.013Z,14.30
2018-01-29T15:46:15.254Z,14.40
2018-01-29T15:48:44.242Z,10.13
2018-01-29T15:51:12.479Z,14.60
2018-01-29T15:53:40.692Z,9.60
2018-01-29T15:56:09.481Z,16.07
2018-01-29T16:01:11.193Z,12.97
2018-01-29T16:03:40.182Z,12.30
2018-01-29T16:06:09.194Z,12.00
2018-01-29T16:08:37.442Z,12.27
2018-01-29T16:11:05.666Z,14.33
2018-01-29T16:13:33.939Z,15.20
2018-01-29T16:16:02.306Z,15.20
2018-01-29T16:18:30.556Z,16.37
2018-01-29T16:20:59.536Z,13.50
2018-01-29T16:23:27.782Z,18.43
2018-01-29T16:25:56.054Z,16.97
2018-01-29T16:28:24.329Z,15.20
2018-01-29T16:30:52.525Z,13.30
2018-01-29T16:33:20.758Z,22.13
2018-01-29T16:35:49.028Z,15.93
2018-01-29T16:38:17.865Z,17.87
2018-01-29T16:40:46.080Z,17.10
2018-01-29T16:43:15.892Z,19.10
2018-01-29T16:45:44.889Z,18.70
2018-01-29T16:48:13.142Z,22.33
2018-01-29T16:50:41.352Z,23.00
2018-01-29T16:53:10.370Z,20.50
2018-01-29T16:55:38.957Z,23.90
2018-01-29T16:58:07.337Z,19.97
2018-01-29T17:00:35.718Z,21.57
2018-01-29T17:03:03.916Z,23.70
2018-01-29T17:05:32.282Z,20.83
2018-01-29T17:08:00.489Z,28.30
2018-01-29T17:10:28.689Z,21.93
2018-01-29T17:12:57.647Z,21.37
2018-01-29T17:15:25.876Z,24.90
2018-01-29T17:17:54.843Z,24.10
2018-01-29T17:20:23.066Z,29.00
2018-01-29T17:22:51.312Z,24.80
2018-01-29T17:25:20.254Z,22.30
2018-01-29T17:27:48.463Z,21.57
2018-01-29T17:30:17.607Z,22.77
2018-01-29T17:32:45.837Z,27.60
2018-01-29T17:35:14.329Z,24.07
2018-01-29T17:37:43.324Z,16.80
2018-01-29T17:40:12.262Z,18.87
2018-01-29T17:42:40.488Z,17.67
2018-01-29T17:45:08.727Z,13.93
2018-01-29T17:47:36.993Z,9.40
2018-01-29T17:50:05.261Z,12.73
2018-01-29T17:52:33.520Z,15.37
2018-01-29T17:55:01.731Z,13.03
2018-01-29T17:57:29.920Z,9.27
2018-01-29T17:59:58.118Z,16.73
2018-01-29T18:02:26.310Z,14.00
2018-01-29T18:04:55.293Z,19.77
2018-01-29T18:07:23.598Z,14.37
2018-01-29T18:09:51.910Z,18.13
2018-01-29T18:12:20.121Z,17.53
2018-01-29T18:14:48.328Z,21.13
2018-01-29T18:17:16.511Z,18.30
2018-01-29T18:19:44.700Z,19.80
2018-01-29T18:22:12.904Z,16.90
2018-01-29T18:24:41.124Z,14.97
2018-01-29T18:27:09.529Z,15.97
2018-01-29T18:29:37.761Z,10.30
2018-01-29T18:32:06.867Z,13.93
2018-01-29T18:34:35.843Z,12.83
2018-01-29T18:37:04.035Z,8.80
2018-01-29T18:39:33.055Z,10.20
2018-01-29T18:42:01.270Z,7.73
2018-01-29T18:44:29.516Z,9.43
2018-01-29T18:46:57.724Z,10.27
2018-01-29T18:49:25.946Z,8.83
2018-01-29T18:51:54.883Z,7.10
2018-01-29T18:54:23.085Z,6.93
2018-01-29T18:56:51.316Z,12.40
2018-01-29T18:59:19.503Z,7.77
2018-01-29T19:01:47.753Z,5.70
2018-01-29T19:04:17.055Z,10.87
2018-01-29T19:06:45.996Z,6.70
2018-01-29T19:09:16.390Z,9.40
2018-01-29T19:11:44.635Z,6.77
2018-01-29T19:14:13.600Z,12.97
2018-01-29T19:16:43.331Z,6.27
2018-01-29T19:19:11.539Z,8.77
2018-01-29T19:21:39.732Z,7.83
2018-01-29T19:24:08.302Z,7.93
2018-01-29T19:26:36.518Z,10.17
2018-01-29T19:29:05.376Z,7.13
2018-01-29T19:31:35.096Z,6.43
2018-01-29T19:34:03.381Z,5.37
2018-01-29T19:36:31.616Z,8.83
2018-01-29T19:39:00.736Z,8.73
2018-01-29T19:41:28.968Z,7.40
2018-01-29T19:43:57.515Z,9.20
2018-01-29T19:46:25.723Z,6.73
2018-01-29T19:48:53.920Z,6.33
2018-01-29T19:51:22.893Z,10.80
2018-01-29T19:53:51.067Z,5.93
2018-01-29T19:56:19.265Z,5.73
2018-01-29T19:58:47.492Z,7.00
2018-01-29T20:01:15.665Z,9.57
2018-01-29T20:03:43.844Z,6.60
2018-01-29T20:06:12.745Z,8.80
2018-01-29T20:08:41.200Z,11.17
2018-01-29T20:11:10.136Z,9.53
2018-01-29T20:13:39.905Z,10.17
2018-01-29T20:16:08.451Z,9.00
2018-01-29T20:18:36.767Z,10.97
2018-01-29T20:21:04.982Z,11.37
2018-01-29T20:23:33.168Z,13.37
2018-01-29T20:26:01.365Z,12.07
2018-01-29T20:28:30.328Z,14.37
2018-01-29T20:31:00.056Z,9.37
2018-01-29T20:33:29.068Z,9.53
2018-01-29T20:35:58.016Z,5.47
2018-01-29T20:38:26.214Z,8.43
2018-01-29T20:40:55.182Z,13.13
2018-01-29T20:43:23.537Z,10.93
2018-01-29T20:45:51.813Z,11.83
2018-01-29T20:48:20.008Z,9.33
2018-01-29T20:50:48.203Z,5.87
2018-01-29T20:53:16.643Z,6.07
2018-01-29T20:55:44.870Z,9.37
2018-01-29T20:58:13.102Z,7.37
2018-01-29T21:00:41.392Z,9.43
2018-01-29T21:03:09.580Z,8.87
2018-01-29T21:05:37.804Z,8.90
2018-01-29T21:08:06.004Z,8.70
2018-01-29T21:10:34.247Z,6.20
2018-01-29T21:13:03.184Z,8.30
2018-01-29T21:15:31.373Z,7.17
2018-01-29T21:17:59.589Z,8.00
2018-01-29T21:20:28.541Z,9.00
2018-01-29T21:22:56.749Z,6.30
2018-01-29T21:25:26.078Z,5.67
2018-01-29T21:27:54.285Z,11.27
2018-01-29T21:30:22.515Z,6.23
2018-01-29T21:32:51.435Z,4.30
2018-01-29T21:35:19.696Z,7.10
2018-01-29T21:37:48.141Z,7.33
2018-01-29T21:40:16.351Z,4.93
2018-01-29T21:42:45.360Z,5.50
2018-01-29T21:45:13.586Z,5.40
2018-01-29T21:47:41.761Z,6.07
2018-01-29T21:50:10.594Z,4.53
2018-01-29T21:52:38.802Z,4.57
2018-01-29T21:55:06.972Z,6.30
2018-01-29T21:57:35.167Z,5.93
2018-01-29T22:00:03.381Z,3.97
2018-01-29T22:02:31.589Z,7.33
2018-01-29T22:04:59.786Z,5.07
2018-01-29T22:07:27.979Z,6.37
2018-01-29T22:09:56.153Z,7.07
2018-01-29T22:12:24.356Z,7.57
2018-01-29T22:14:53.341Z,9.20
2018-01-29T22:17:21.514Z,9.03
2018-01-29T22:19:49.693Z,10.07
2018-01-29T22:22:18.709Z,7.80
2018-01-29T22:24:47.716Z,8.73
2018-01-29T22:27:15.902Z,9.33
2018-01-29T22:29:45.051Z,8.37
2018-01-29T22:32:13.272Z,7.73
2018-01-29T22:34:41.449Z,6.77
2018-01-29T22:37:09.669Z,9.43
2018-01-29T22:39:37.857Z,6.40
2018-01-29T22:42:06.014Z,4.70
2018-01-29T22:44:34.213Z,6.67
2018-01-29T22:47:02.427Z,4.47
2018-01-29T22:49:30.611Z,6.87
2018-01-29T22:51:58.826Z,6.80
2018-01-29T22:54:26.997Z,8.70
2018-01-29T22:56:55.461Z,5.90
2018-01-29T22:59:23.662Z,10.20
2018-01-29T23:01:51.884Z,5.70
2018-01-29T23:04:20.163Z,4.93
2018-01-29T23:06:48.358Z,5.23
2018-01-29T23:09:16.525Z,4.13
2018-01-29T23:11:44.687Z,6.20
2018-01-29T23:14:12.964Z,4.63
2018-01-29T23:16:41.127Z,4.33
2018-01-29T23:19:09.308Z,7.83
2018-01-29T23:21:37.522Z,5.23
2018-01-29T23:24:05.697Z,5.33
2018-01-29T23:26:33.878Z,4.50
2018-01-29T23:29:02.073Z,6.07
2018-01-29T23:31:31.031Z,6.23
2018-01-29T23:33:59.246Z,5.87
2018-01-29T23:36:27.446Z,5.07
2018-01-29T23:38:56.390Z,5.47
2018-01-29T23:41:24.580Z,6.73
2018-01-29T23:43:52.785Z,5.33
2018-01-29T23:46:21.790Z,5.73
2018-01-29T23:48:49.986Z,7.97
2018-01-29T23:51:18.170Z,4.17
2018-01-29T23:53:46.352Z,6.60
2018-01-29T23:56:14.508Z,3.23
2018-01-29T23:58:42.728Z,4.70
